createdAt,value
2022-07-26T00:02:18.244Z,98321.17
2022-07-26T00:04:48.185Z,98315.07
2022-07-26T00:07:21.277Z,98309.90
2022-07-26T00:09:54.689Z,98311.95
2022-07-26T00:12:27.857Z,98306.87
2022-07-26T00:15:02.259Z,98301.82
2022-07-26T00:17:35.411Z,98300.27
2022-07-26T00:20:12.096Z,98302.84
2022-07-26T00:22:45.367Z,98309.70
2022-07-26T00:25:18.404Z,98304.39
2022-07-26T00:27:51.787Z,98302.14
2022-07-26T00:30:25.122Z,98312.07
2022-07-26T00:32:58.383Z,98318.58
2022-07-26T00:35:31.324Z,98312.12
2022-07-26T00:38:04.461Z,98310.80
2022-07-26T00:40:37.413Z,98318.45
2022-07-26T00:43:12.130Z,98317.92
2022-07-26T00:45:45.790Z,98312.52
2022-07-26T00:48:19.268Z,98317.30
2022-07-26T00:50:54.035Z,98311.27
2022-07-26T00:53:27.132Z,98309.99
2022-07-26T00:56:03.515Z,98310.52
2022-07-26T00:58:36.895Z,98301.94
2022-07-26T01:01:10.454Z,98305.88
2022-07-26T01:03:44.350Z,98305.40
2022-07-26T01:06:17.541Z,98309.56
2022-07-26T01:08:51.428Z,98314.41
2022-07-26T01:11:24.721Z,98306.00
2022-07-26T01:13:57.665Z,98311.67
2022-07-26T01:16:32.340Z,98310.02
2022-07-26T01:19:05.537Z,98312.38
2022-07-26T01:21:38.650Z,98317.55
2022-07-26T01:24:11.841Z,98315.96
2022-07-26T01:26:45.006Z,98317.98
2022-07-26T01:29:18.285Z,98316.34
2022-07-26T01:31:52.295Z,98322.59
2022-07-26T01:34:25.375Z,98314.84
2022-07-26T01:36:58.679Z,98318.29
2022-07-26T01:39:31.720Z,98306.80
2022-07-26T01:42:05.027Z,98308.69
2022-07-26T01:44:38.038Z,98312.27
2022-07-26T01:47:11.153Z,98320.02
2022-07-26T01:49:44.254Z,98320.02
2022-07-26T01:52:19.431Z,98320.78
2022-07-26T01:54:52.498Z,98322.50
2022-07-26T01:57:28.321Z,98320.39
2022-07-26T02:00:01.659Z,98316.67
2022-07-26T02:02:37.126Z,98324.72
2022-07-26T02:05:11.422Z,98328.93
2022-07-26T02:07:45.414Z,98337.52
2022-07-26T02:10:18.583Z,98333.72
2022-07-26T02:12:51.824Z,98331.11
2022-07-26T02:15:26.529Z,98328.88
2022-07-26T02:18:00.575Z,98328.17
2022-07-26T02:20:33.730Z,98331.94
2022-07-26T02:23:07.214Z,98333.75
2022-07-26T02:25:40.402Z,98332.02
2022-07-26T02:28:13.519Z,98338.27
2022-07-26T02:30:50.260Z,98342.64
2022-07-26T02:33:24.182Z,98341.36
2022-07-26T02:35:57.332Z,98350.19
2022-07-26T02:38:30.549Z,98349.23
2022-07-26T02:41:03.621Z,98358.61
2022-07-26T02:43:39.636Z,98350.11
2022-07-26T02:46:12.848Z,98351.17
2022-07-26T02:48:46.221Z,98352.14
2022-07-26T02:51:19.391Z,98355.47
2022-07-26T02:53:53.933Z,98360.92
2022-07-26T02:56:26.932Z,98365.78
2022-07-26T02:59:00.011Z,98364.09
2022-07-26T03:01:35.770Z,98367.30
2022-07-26T03:04:09.339Z,98374.95
2022-07-26T03:06:42.944Z,98372.21
2022-07-26T03:09:16.023Z,98371.19
2022-07-26T03:11:49.217Z,98380.98
2022-07-26T03:14:22.545Z,98381.06
2022-07-26T03:16:58.332Z,98374.95
2022-07-26T03:19:31.335Z,98372.91
2022-07-26T03:22:04.734Z,98370.86
2022-07-26T03:24:40.099Z,98378.95
2022-07-26T03:27:13.962Z,98374.66
2022-07-26T03:29:46.955Z,98376.05
2022-07-26T03:32:20.460Z,98375.86
2022-07-26T03:34:53.623Z,98382.30
2022-07-26T03:37:26.762Z,98379.22
2022-07-26T03:40:01.514Z,98391.91
2022-07-26T03:42:34.902Z,98386.49
2022-07-26T03:45:10.548Z,98392.84
2022-07-26T03:47:43.971Z,98399.90
2022-07-26T03:50:17.090Z,98397.15
2022-07-26T03:52:50.165Z,98392.61
2022-07-26T03:55:40.781Z,98395.37
2022-07-26T03:58:14.002Z,98398.54
2022-07-26T04:00:47.140Z,98399.06
2022-07-26T04:03:20.967Z,98394.00
2022-07-26T04:05:53.962Z,98398.70
2022-07-26T04:08:29.390Z,98395.28
2022-07-26T04:11:02.359Z,98392.67
2022-07-26T04:13:36.721Z,98396.97
2022-07-26T04:16:10.518Z,98404.86
2022-07-26T04:18:43.703Z,98405.14
2022-07-26T04:21:17.262Z,98402.20
2022-07-26T04:23:52.033Z,98404.19
2022-07-26T04:26:39.281Z,98411.91
2022-07-26T04:29:17.857Z,98405.75
2022-07-26T04:31:50.840Z,98411.47
2022-07-26T04:34:34.805Z,98411.27
2022-07-26T04:37:15.346Z,98416.29
2022-07-26T04:39:55.043Z,98410.30
2022-07-26T04:42:36.950Z,98408.02
2022-07-26T04:45:24.210Z,98401.33
2022-07-26T04:48:22.017Z,98404.41
2022-07-26T04:50:48.277Z,98403.83
2022-07-26T04:53:22.323Z,98414.50
2022-07-26T04:55:58.756Z,98411.73
2022-07-26T04:58:31.755Z,98404.20
2022-07-26T05:01:12.216Z,98407.81
2022-07-26T05:03:40.802Z,98411.94
2022-07-26T05:06:23.716Z,98404.41
2022-07-26T05:08:58.382Z,98400.80
2022-07-26T05:11:31.476Z,98404.20
2022-07-26T05:14:07.912Z,98395.93
2022-07-26T05:16:44.268Z,98397.55
2022-07-26T05:19:16.158Z,98401.73
2022-07-26T05:21:49.198Z,98401.73
2022-07-26T05:24:22.133Z,98399.54
2022-07-26T05:26:58.547Z,98403.58
2022-07-26T05:29:29.917Z,98409.18
2022-07-26T05:32:02.877Z,98402.66
2022-07-26T05:34:35.986Z,98403.19
2022-07-26T05:37:09.203Z,98407.95
2022-07-26T05:39:42.553Z,98404.02
2022-07-26T05:42:15.579Z,98402.56
2022-07-26T05:44:48.506Z,98404.55
2022-07-26T05:47:22.554Z,98399.13
2022-07-26T05:49:55.616Z,98407.59
2022-07-26T05:52:29.109Z,98408.14
2022-07-26T05:55:02.205Z,98408.69
2022-07-26T05:57:35.328Z,98406.56
2022-07-26T06:00:13.784Z,98410.52
2022-07-26T06:02:46.743Z,98405.83
2022-07-26T06:05:20.251Z,98405.72
2022-07-26T06:07:53.287Z,98414.80
2022-07-26T06:10:26.478Z,98412.45
2022-07-26T06:13:00.744Z,98413.53
2022-07-26T06:15:33.849Z,98409.50
2022-07-26T06:18:07.482Z,98404.88
2022-07-26T06:20:42.762Z,98403.54
2022-07-26T06:23:16.167Z,98396.25
2022-07-26T06:25:49.381Z,98401.82
2022-07-26T06:28:22.666Z,98403.13
2022-07-26T06:30:55.611Z,98396.59
2022-07-26T06:33:28.720Z,98405.34
2022-07-26T06:36:01.816Z,98402.89
2022-07-26T06:38:34.962Z,98411.46
2022-07-26T06:41:27.193Z,98405.88
2022-07-26T06:43:57.926Z,98407.82
2022-07-26T06:46:31.150Z,98408.13
2022-07-26T06:49:04.229Z,98404.08
2022-07-26T06:51:38.959Z,98399.27
2022-07-26T06:54:12.086Z,98392.39
2022-07-26T06:56:45.227Z,98397.01
2022-07-26T06:59:18.340Z,98397.94
2022-07-26T07:01:58.525Z,98399.16
2022-07-26T07:04:25.931Z,98385.95
2022-07-26T07:07:01.578Z,98387.69
2022-07-26T07:09:36.472Z,98388.91
2022-07-26T07:12:10.888Z,98388.02
2022-07-26T07:14:44.421Z,98381.92
2022-07-26T07:17:20.919Z,98384.39
2022-07-26T07:19:53.957Z,98394.05
2022-07-26T07:22:26.933Z,98385.44
2022-07-26T07:25:00.938Z,98390.45
2022-07-26T07:27:35.580Z,98389.18
2022-07-26T07:30:11.137Z,98393.92
2022-07-26T07:32:44.520Z,98397.94
2022-07-26T07:35:17.612Z,98399.95
2022-07-26T07:37:54.162Z,98398.27
2022-07-26T07:40:27.361Z,98397.34
2022-07-26T07:43:02.251Z,98395.88
2022-07-26T07:45:35.229Z,98397.06
2022-07-26T07:48:08.800Z,98399.27
2022-07-26T07:50:41.779Z,98398.17
2022-07-26T07:53:15.035Z,98399.97
2022-07-26T07:55:47.977Z,98398.61
2022-07-26T07:58:22.441Z,98388.25
2022-07-26T08:00:55.441Z,98399.76
2022-07-26T08:03:38.740Z,98398.03
2022-07-26T08:06:04.584Z,98409.59
2022-07-26T08:08:39.656Z,98403.23
2022-07-26T08:11:12.889Z,98408.02
2022-07-26T08:13:48.061Z,98405.27
2022-07-26T08:16:21.132Z,98404.33
2022-07-26T08:18:57.998Z,98411.14
2022-07-26T08:21:29.479Z,98404.14
2022-07-26T08:26:54.083Z,98409.61
2022-07-26T08:29:27.046Z,98405.19
2022-07-26T08:32:01.273Z,98404.60
2022-07-26T08:34:34.418Z,98412.88
2022-07-26T08:37:16.936Z,98406.98
2022-07-26T08:39:42.654Z,98410.33
2022-07-26T08:42:22.475Z,98410.25
2022-07-26T08:44:55.504Z,98411.30
2022-07-26T08:47:39.828Z,98414.31
2022-07-26T08:50:03.305Z,98416.41
2022-07-26T08:52:36.661Z,98410.55
2022-07-26T08:55:11.361Z,98414.28
2022-07-26T08:57:44.425Z,98408.46
2022-07-26T09:00:19.345Z,98417.67
2022-07-26T09:02:52.676Z,98422.05
2022-07-26T09:05:31.763Z,98429.66
2022-07-26T09:08:11.092Z,98421.40
2022-07-26T09:13:25.640Z,98415.52
2022-07-26T09:16:12.765Z,98423.01
2022-07-26T09:18:45.919Z,98428.67
2022-07-26T09:21:30.509Z,98429.41
2022-07-26T09:24:03.635Z,98417.44
2022-07-26T09:26:36.958Z,98427.17
2022-07-26T09:29:12.571Z,98423.83
2022-07-26T09:31:46.092Z,98416.03
2022-07-26T09:34:26.718Z,98415.09
2022-07-26T09:36:59.905Z,98420.31
2022-07-26T09:39:34.005Z,98416.96
2022-07-26T09:42:27.611Z,98419.19
2022-07-26T09:44:47.761Z,98418.86
2022-07-26T09:47:21.893Z,98416.67
2022-07-26T09:50:11.949Z,98424.13
2022-07-26T09:53:03.304Z,98408.75
2022-07-26T09:55:44.625Z,98419.01
2022-07-26T09:58:14.774Z,98407.55
2022-07-26T10:00:48.685Z,98410.06
2022-07-26T10:03:21.886Z,98405.16
2022-07-26T10:05:56.256Z,98412.83
2022-07-26T10:08:30.975Z,98415.02
2022-07-26T10:11:08.039Z,98411.44
2022-07-26T10:13:40.992Z,98417.77
2022-07-26T10:16:31.407Z,98409.69
2022-07-26T10:19:05.670Z,98419.03
2022-07-26T10:21:38.743Z,98422.72
2022-07-26T10:24:18.899Z,98414.67
2022-07-26T10:26:51.873Z,98415.63
2022-07-26T10:29:29.957Z,98416.73
2022-07-26T10:32:21.552Z,98417.31
2022-07-26T10:34:54.601Z,98416.22
2022-07-26T10:37:29.802Z,98422.78
2022-07-26T10:43:39.674Z,98409.72
2022-07-26T10:45:49.833Z,98405.36
2022-07-26T10:48:25.040Z,98403.05
2022-07-26T10:51:00.800Z,98410.08
2022-07-26T10:53:33.860Z,98407.70
2022-07-26T10:56:07.479Z,98401.54
2022-07-26T10:58:45.433Z,98404.07
2022-07-26T11:01:19.173Z,98406.06
2022-07-26T11:03:52.187Z,98399.84
2022-07-26T11:06:27.182Z,98392.73
2022-07-26T11:09:04.308Z,98391.97
2022-07-26T11:11:37.285Z,98385.14
2022-07-26T11:14:12.504Z,98389.95
2022-07-26T11:16:47.531Z,98389.98
2022-07-26T11:19:21.938Z,98389.50
2022-07-26T11:21:58.829Z,98387.42
2022-07-26T11:24:31.875Z,98384.81
2022-07-26T11:27:06.911Z,98389.45
2022-07-26T11:29:41.574Z,98383.59
2022-07-26T11:32:20.568Z,98389.57
2022-07-26T11:35:02.070Z,98383.56
2022-07-26T11:37:35.212Z,98380.89
2022-07-26T11:40:10.560Z,98379.25
2022-07-26T11:42:45.195Z,98372.31
2022-07-26T11:45:19.488Z,98376.51
2022-07-26T11:47:53.849Z,98367.98
2022-07-26T11:50:26.973Z,98372.92
2022-07-26T11:52:59.937Z,98372.25
2022-07-26T11:55:33.504Z,98364.29
2022-07-26T11:58:08.021Z,98371.11
2022-07-26T12:00:41.149Z,98366.27
2022-07-26T12:03:14.507Z,98365.00
2022-07-26T12:06:03.423Z,98371.13
2022-07-26T12:08:45.028Z,98366.34
2022-07-26T12:11:19.106Z,98360.55
2022-07-26T12:13:58.287Z,98359.53
2022-07-26T12:16:38.897Z,98354.42
2022-07-26T12:19:15.151Z,98355.02
2022-07-26T12:21:50.086Z,98349.17
2022-07-26T12:24:47.562Z,98351.56
2022-07-26T12:27:22.662Z,98354.49
2022-07-26T12:29:57.359Z,98356.47
2022-07-26T12:32:35.682Z,98350.38
2022-07-26T12:35:10.626Z,98357.21
2022-07-26T12:37:54.198Z,98354.11
2022-07-26T12:40:29.040Z,98357.70
2022-07-26T12:43:03.197Z,98372.31
2022-07-26T12:45:38.301Z,98372.61
2022-07-26T12:48:12.760Z,98372.52
2022-07-26T12:50:45.676Z,98367.62
2022-07-26T12:53:20.430Z,98371.19
2022-07-26T12:55:53.393Z,98367.50
2022-07-26T12:58:26.435Z,98363.78
2022-07-26T13:00:59.333Z,98366.53
2022-07-26T13:03:32.354Z,98360.70
2022-07-26T13:06:05.452Z,98362.13
2022-07-26T13:08:38.478Z,98366.00
2022-07-26T13:11:11.683Z,98355.35
2022-07-26T13:13:44.588Z,98353.63
2022-07-26T13:16:17.659Z,98347.66
2022-07-26T13:18:50.976Z,98364.14
2022-07-26T13:21:24.020Z,98376.55
2022-07-26T13:23:58.227Z,98381.53
2022-07-26T13:26:32.421Z,98373.59
2022-07-26T13:29:05.449Z,98368.50
2022-07-26T13:31:39.323Z,98353.44
2022-07-26T13:34:13.030Z,98363.83
2022-07-26T13:36:46.768Z,98373.63
2022-07-26T13:39:20.212Z,98373.59
2022-07-26T13:41:53.676Z,98367.92
2022-07-26T13:44:26.629Z,98370.20
2022-07-26T13:46:59.717Z,98358.84
2022-07-26T13:49:32.770Z,98356.02
2022-07-26T13:52:06.503Z,98383.27
2022-07-26T13:54:41.102Z,98402.63
2022-07-26T13:57:14.155Z,98427.54
2022-07-26T13:59:47.140Z,98433.53
2022-07-26T14:02:20.888Z,98421.06
2022-07-26T14:04:54.026Z,98409.50
2022-07-26T14:07:26.988Z,98399.69
2022-07-26T14:09:59.968Z,98401.71
2022-07-26T14:12:35.555Z,98397.12
2022-07-26T14:15:15.240Z,98402.56
2022-07-26T14:17:47.374Z,98408.25
2022-07-26T14:20:21.203Z,98412.64
2022-07-26T14:22:55.925Z,98414.11
2022-07-26T14:25:29.429Z,98413.37
2022-07-26T14:28:04.321Z,98417.22
2022-07-26T14:30:37.591Z,98416.55
2022-07-26T14:33:10.676Z,98413.08
2022-07-26T14:35:44.136Z,98402.08
2022-07-26T14:38:24.349Z,98401.19
2022-07-26T14:40:51.897Z,98395.80
2022-07-26T14:43:26.805Z,98405.12
2022-07-26T14:45:59.847Z,98397.34
2022-07-26T14:48:53.359Z,98390.80
2022-07-26T14:51:09.810Z,98382.05
2022-07-26T14:53:44.169Z,98376.89
2022-07-26T14:56:17.113Z,98391.39
2022-07-26T14:58:50.184Z,98376.17
2022-07-26T15:01:23.215Z,98383.76
2022-07-26T15:03:56.501Z,98390.22
2022-07-26T15:06:29.669Z,98393.23
2022-07-26T15:09:02.789Z,98380.79
2022-07-26T15:11:36.444Z,98384.72
2022-07-26T15:14:09.741Z,98379.39
2022-07-26T15:16:43.066Z,98387.25
2022-07-26T15:19:16.201Z,98383.47
2022-07-26T15:21:49.889Z,98383.48
2022-07-26T15:24:24.343Z,98385.30
2022-07-26T15:26:57.593Z,98390.94
2022-07-26T15:29:31.559Z,98380.43
2022-07-26T15:32:04.953Z,98383.86
2022-07-26T15:34:38.149Z,98381.64
2022-07-26T15:37:11.845Z,98384.79
2022-07-26T15:39:44.900Z,98379.83
2022-07-26T15:42:18.161Z,98374.32
2022-07-26T15:44:52.324Z,98375.35
2022-07-26T15:47:52.495Z,98377.20
2022-07-26T15:50:01.895Z,98372.75
2022-07-26T15:52:34.803Z,98375.83
2022-07-26T15:55:09.476Z,98372.77
2022-07-26T15:57:43.032Z,98377.02
2022-07-26T16:00:19.953Z,98383.04
2022-07-26T16:02:53.298Z,98381.77
2022-07-26T16:05:26.308Z,98412.69
2022-07-26T16:07:59.298Z,98404.20
2022-07-26T16:10:32.321Z,98410.06
2022-07-26T16:13:06.400Z,98406.53
2022-07-26T16:15:39.781Z,98407.00
2022-07-26T16:18:13.210Z,98410.08
2022-07-26T16:20:46.731Z,98413.31
2022-07-26T16:23:19.768Z,98417.13
2022-07-26T16:25:53.468Z,98415.41
2022-07-26T16:28:26.365Z,98418.84
2022-07-26T16:30:59.337Z,98425.33
2022-07-26T16:33:32.397Z,98418.10
2022-07-26T16:36:06.913Z,98425.52
2022-07-26T16:38:40.267Z,98424.28
2022-07-26T16:41:13.458Z,98427.27
2022-07-26T16:43:46.594Z,98425.88
2022-07-26T16:46:19.956Z,98424.23
2022-07-26T16:48:53.030Z,98424.27
2022-07-26T16:51:26.010Z,98418.08
2022-07-26T16:53:59.184Z,98420.44
2022-07-26T16:56:32.537Z,98416.42
2022-07-26T16:59:10.327Z,98425.85
2022-07-26T17:01:41.447Z,98421.94
2022-07-26T17:04:14.547Z,98418.16
2022-07-26T17:07:07.755Z,98421.72
2022-07-26T17:09:22.551Z,98424.85
2022-07-26T17:11:55.985Z,98420.97
2022-07-26T17:14:29.011Z,98427.07
2022-07-26T17:17:01.978Z,98424.12
2022-07-26T17:19:34.963Z,98420.59
2022-07-26T17:22:07.930Z,98422.78
2022-07-26T17:24:40.927Z,98427.03
2022-07-26T17:27:13.822Z,98436.55
2022-07-26T17:29:47.059Z,98442.39
2022-07-26T17:32:20.043Z,98437.48
2022-07-26T17:34:53.053Z,98428.16
2022-07-26T17:37:26.360Z,98434.59
2022-07-26T17:40:01.142Z,98439.91
2022-07-26T17:42:34.525Z,98440.48
2022-07-26T17:45:09.619Z,98438.17
2022-07-26T17:47:42.703Z,98442.91
2022-07-26T17:52:51.875Z,98456.24
2022-07-26T17:55:25.312Z,98459.48
2022-07-26T17:57:58.886Z,98462.70
2022-07-26T18:00:32.138Z,98464.74
2022-07-26T18:03:05.163Z,98468.74
2022-07-26T18:05:41.428Z,98470.90
2022-07-26T18:08:13.362Z,98469.62
2022-07-26T18:10:50.853Z,98472.65
2022-07-26T18:13:21.574Z,98468.60
2022-07-26T18:15:57.129Z,98471.59
2022-07-26T18:18:30.500Z,98470.23
2022-07-26T18:21:03.440Z,98474.17
2022-07-26T18:23:36.888Z,98468.41
2022-07-26T18:26:10.387Z,98469.80
2022-07-26T18:28:43.697Z,98471.06
2022-07-26T18:31:18.867Z,98477.72
2022-07-26T18:33:52.083Z,98485.94
2022-07-26T18:36:25.596Z,98480.81
2022-07-26T18:39:00.095Z,98477.60
2022-07-26T18:41:34.408Z,98470.75
2022-07-26T18:44:08.069Z,98476.53
2022-07-26T18:46:41.537Z,98478.47
2022-07-26T18:49:19.910Z,98476.94
2022-07-26T18:51:50.451Z,98471.81
2022-07-26T18:54:25.389Z,98474.91
2022-07-26T18:56:59.041Z,98474.28
2022-07-26T18:59:32.242Z,98474.58
2022-07-26T19:02:05.404Z,98473.93
2022-07-26T19:04:38.896Z,98468.80
2022-07-26T19:07:12.187Z,98477.89
2022-07-26T19:09:45.278Z,98475.38
2022-07-26T19:12:18.272Z,98480.72
2022-07-26T19:14:51.656Z,98473.57
2022-07-26T19:17:25.012Z,98480.94
2022-07-26T19:20:00.195Z,98475.59
2022-07-26T19:22:34.579Z,98479.22
2022-07-26T19:25:10.839Z,98472.38
2022-07-26T19:27:44.507Z,98477.94
2022-07-26T19:30:17.805Z,98479.63
2022-07-26T19:32:51.108Z,98476.87
2022-07-26T19:35:24.767Z,98471.52
2022-07-26T19:37:58.076Z,98478.78
2022-07-26T19:40:31.873Z,98484.45
2022-07-26T19:43:05.517Z,98481.02
2022-07-26T19:45:39.829Z,98486.36
2022-07-26T19:48:13.046Z,98480.24
2022-07-26T19:50:46.074Z,98487.31
2022-07-26T19:53:19.519Z,98488.81
2022-07-26T19:55:53.238Z,98482.52
2022-07-26T19:58:27.174Z,98482.41
2022-07-26T20:01:00.383Z,98481.56
2022-07-26T20:03:34.249Z,98474.50
2022-07-26T20:06:08.328Z,98475.45
2022-07-26T20:08:41.746Z,98475.55
2022-07-26T20:11:15.609Z,98465.92
2022-07-26T20:13:48.933Z,98466.14
2022-07-26T20:16:22.545Z,98461.86
2022-07-26T20:18:55.817Z,98461.20
2022-07-26T20:21:29.065Z,98454.53
2022-07-26T20:24:02.599Z,98460.54
2022-07-26T20:26:37.552Z,98462.37
2022-07-26T20:29:11.875Z,98460.64
2022-07-26T20:31:45.795Z,98465.23
2022-07-26T20:34:18.959Z,98458.19
2022-07-26T20:36:53.927Z,98451.02
2022-07-26T20:39:27.964Z,98449.19
2022-07-26T20:42:02.121Z,98451.13
2022-07-26T20:44:37.599Z,98446.95
2022-07-26T20:47:12.571Z,98447.13
2022-07-26T20:49:45.866Z,98447.05
2022-07-26T20:52:19.463Z,98457.82
2022-07-26T20:54:53.438Z,98448.12
2022-07-26T20:57:26.699Z,98451.73
2022-07-26T20:59:59.962Z,98449.25
2022-07-26T21:02:35.233Z,98447.64
2022-07-26T21:05:10.615Z,98447.75
2022-07-26T21:07:57.228Z,98455.76
2022-07-26T21:10:18.915Z,98453.20
2022-07-26T21:12:56.274Z,98457.70
2022-07-26T21:15:29.796Z,98450.63
2022-07-26T21:20:46.839Z,98459.20
2022-07-26T21:23:21.535Z,98463.94
2022-07-26T21:25:58.091Z,98456.94
2022-07-26T21:28:30.896Z,98462.50
2022-07-26T21:31:04.286Z,98462.78
2022-07-26T21:33:37.656Z,98466.50
2022-07-26T21:36:10.982Z,98466.89
2022-07-26T21:38:44.698Z,98467.94
2022-07-26T21:41:17.955Z,98470.72
2022-07-26T21:43:51.251Z,98473.50
2022-07-26T21:46:24.468Z,98468.43
2022-07-26T21:48:57.902Z,98468.75
2022-07-26T21:51:31.161Z,98473.41
2022-07-26T21:54:04.701Z,98470.38
2022-07-26T21:56:37.973Z,98471.70
2022-07-26T21:59:11.967Z,98467.72
2022-07-26T22:01:45.304Z,98469.82
2022-07-26T22:04:18.625Z,98461.98
2022-07-26T22:06:51.707Z,98462.19
2022-07-26T22:09:24.951Z,98468.64
2022-07-26T22:11:59.494Z,98467.02
2022-07-26T22:14:32.792Z,98467.02
2022-07-26T22:17:06.090Z,98474.92
2022-07-26T22:19:39.444Z,98479.38
2022-07-26T22:22:14.988Z,98472.42
2022-07-26T22:24:48.046Z,98469.75
2022-07-26T22:27:21.726Z,98469.86
2022-07-26T22:29:55.010Z,98475.49
2022-07-26T22:32:28.862Z,98485.48
2022-07-26T22:35:02.250Z,98485.00
2022-07-26T22:37:35.482Z,98481.08
2022-07-26T22:40:11.333Z,98484.11
2022-07-26T22:42:45.803Z,98488.11
2022-07-26T22:45:19.209Z,98476.76
2022-07-26T22:47:56.356Z,98477.80
2022-07-26T22:50:28.819Z,98487.62
2022-07-26T22:53:02.612Z,98483.33
2022-07-26T22:55:35.922Z,98480.82
2022-07-26T22:58:09.111Z,98481.86
2022-07-26T23:00:42.622Z,98470.97
2022-07-26T23:03:20.219Z,98485.17
2022-07-26T23:05:55.066Z,98479.16
2022-07-26T23:11:03.204Z,98470.13
2022-07-26T23:13:37.131Z,98472.20
2022-07-26T23:16:12.985Z,98472.74
2022-07-26T23:18:46.240Z,98474.81
2022-07-26T23:21:31.537Z,98470.23
2022-07-26T23:24:06.661Z,98483.73
2022-07-26T23:26:40.009Z,98475.84
2022-07-26T23:29:13.614Z,98478.76
2022-07-26T23:31:47.528Z,98473.62
2022-07-26T23:34:20.746Z,98477.22
2022-07-26T23:36:53.910Z,98474.80
2022-07-26T23:39:27.402Z,98478.68
2022-07-26T23:42:02.781Z,98472.75
2022-07-26T23:44:39.034Z,98483.59
2022-07-26T23:47:12.156Z,98481.68
2022-07-26T23:49:45.212Z,98472.00
2022-07-26T23:52:18.346Z,98478.27
2022-07-26T23:54:51.463Z,98475.59
2022-07-26T23:57:24.608Z,98473.18
2022-07-26T23:59:57.735Z,98474.13
